createdAt,value
2023-02-09T00:04:13.344Z,80.43
2023-02-09T00:09:16.333Z,80.63
2023-02-09T00:14:21.999Z,80.88
2023-02-09T00:19:26.633Z,81.06
2023-02-09T00:24:29.286Z,81.08
2023-02-09T00:29:31.951Z,81.17
2023-02-09T00:34:34.547Z,81.10
2023-02-09T00:39:37.276Z,80.99
2023-02-09T00:44:40.649Z,80.80
2023-02-09T00:49:43.281Z,80.65
2023-02-09T00:54:45.997Z,80.36
2023-02-09T00:59:48.571Z,80.17
2023-02-09T01:04:51.190Z,80.00
2023-02-09T01:09:54.065Z,79.96
2023-02-09T01:14:56.884Z,80.02
2023-02-09T01:19:59.460Z,79.89
2023-02-09T01:25:02.631Z,79.73
2023-02-09T01:30:05.671Z,79.81
2023-02-09T01:35:08.973Z,79.77
2023-02-09T01:40:12.048Z,79.58
2023-02-09T01:45:21.268Z,79.39
2023-02-09T01:50:24.890Z,79.56
2023-02-09T01:55:32.467Z,79.35
2023-02-09T02:00:35.060Z,79.37
2023-02-09T02:05:41.503Z,79.41
2023-02-09T02:10:44.431Z,79.45
2023-02-09T02:16:03.397Z,79.44
2023-02-09T02:21:38.581Z,79.64
2023-02-09T02:27:00.181Z,79.68
2023-02-09T02:32:29.712Z,79.88
2023-02-09T02:38:04.279Z,79.93
2023-02-09T02:43:39.147Z,80.00
2023-02-09T02:48:44.094Z,80.10
2023-02-09T02:53:52.740Z,80.13
2023-02-09T02:58:59.336Z,80.24
2023-02-09T03:04:04.845Z,80.18
2023-02-09T03:09:07.570Z,80.12
2023-02-09T03:14:10.645Z,80.05
2023-02-09T03:19:45.103Z,79.98
2023-02-09T03:24:47.609Z,80.13
2023-02-09T03:29:56.531Z,80.32
2023-02-09T03:35:00.575Z,80.36
2023-02-09T03:40:03.463Z,80.34
2023-02-09T03:45:08.038Z,80.40
2023-02-09T03:50:10.668Z,80.55
2023-02-09T03:55:13.621Z,80.64
2023-02-09T04:00:17.534Z,80.66
2023-02-09T04:05:25.641Z,80.77
2023-02-09T04:10:30.069Z,80.91
2023-02-09T04:15:32.620Z,80.85
2023-02-09T04:20:35.159Z,80.99
2023-02-09T04:25:37.998Z,81.11
2023-02-09T04:30:43.977Z,81.11
2023-02-09T04:35:48.838Z,81.36
2023-02-09T04:40:54.056Z,81.42
2023-02-09T04:45:57.098Z,81.45
2023-02-09T04:50:59.857Z,81.65
2023-02-09T04:56:02.454Z,81.99
2023-02-09T05:01:06.017Z,82.00
2023-02-09T05:06:08.650Z,82.23
2023-02-09T05:11:13.158Z,82.22
2023-02-09T05:16:21.740Z,82.30
2023-02-09T05:21:25.682Z,82.24
2023-02-09T05:26:28.580Z,82.26
2023-02-09T05:31:31.275Z,82.03
2023-02-09T05:36:34.180Z,82.12
2023-02-09T05:41:52.786Z,82.25
2023-02-09T05:46:56.127Z,82.16
2023-02-09T05:51:58.776Z,82.10
2023-02-09T05:57:01.531Z,82.01
2023-02-09T06:02:04.554Z,81.95
2023-02-09T06:07:07.256Z,81.94
2023-02-09T06:12:10.014Z,82.05
2023-02-09T06:17:12.921Z,81.93
2023-02-09T06:22:15.480Z,81.78
2023-02-09T06:27:19.021Z,81.52
2023-02-09T06:32:21.653Z,81.34
2023-02-09T06:37:24.673Z,81.18
2023-02-09T06:42:43.604Z,80.91
2023-02-09T06:47:47.352Z,80.63
2023-02-09T06:52:51.057Z,80.23
2023-02-09T06:57:57.208Z,79.79
2023-02-09T07:03:01.073Z,79.35
2023-02-09T07:08:03.949Z,78.88
2023-02-09T07:13:06.519Z,78.53
2023-02-09T07:18:09.148Z,78.03
2023-02-09T07:23:11.806Z,77.43
2023-02-09T07:28:14.558Z,77.38
2023-02-09T07:33:18.453Z,77.13
2023-02-09T07:38:22.874Z,76.77
2023-02-09T07:43:27.453Z,76.81
2023-02-09T07:48:32.557Z,76.69
2023-02-09T07:53:35.179Z,76.09
2023-02-09T07:58:37.952Z,75.71
2023-02-09T08:03:43.059Z,75.52
2023-02-09T08:08:46.656Z,74.88
2023-02-09T08:13:51.137Z,74.45
2023-02-09T08:18:59.674Z,74.12
2023-02-09T08:24:04.029Z,73.54
2023-02-09T08:29:07.717Z,72.42
2023-02-09T08:34:10.354Z,71.33
2023-02-09T08:39:13.052Z,70.59
2023-02-09T08:44:15.626Z,69.89
2023-02-09T08:49:18.629Z,68.76
2023-02-09T08:54:21.288Z,68.37
2023-02-09T08:59:23.886Z,67.88
2023-02-09T09:04:26.566Z,65.99
2023-02-09T09:09:29.159Z,65.26
2023-02-09T09:14:32.242Z,65.83
2023-02-09T09:19:34.812Z,65.29
2023-02-09T09:24:40.770Z,65.18
2023-02-09T09:29:43.452Z,64.82
2023-02-09T09:34:46.060Z,65.33
2023-02-09T09:39:49.066Z,64.97
2023-02-09T09:44:52.801Z,64.76
2023-02-09T09:49:56.289Z,64.44
2023-02-09T09:55:01.415Z,64.13
2023-02-09T10:00:16.705Z,63.57
2023-02-09T10:05:20.889Z,62.74
2023-02-09T10:10:45.845Z,62.79
2023-02-09T10:15:51.060Z,63.13
2023-02-09T10:21:02.594Z,63.31
2023-02-09T10:26:08.309Z,62.88
2023-02-09T10:31:25.124Z,62.52
2023-02-09T10:36:34.071Z,63.00
2023-02-09T10:41:38.998Z,62.86
2023-02-09T10:46:41.812Z,62.57
2023-02-09T10:51:44.551Z,62.54
2023-02-09T10:56:48.872Z,62.28
2023-02-09T11:02:02.018Z,61.86
2023-02-09T11:07:13.122Z,62.11
2023-02-09T11:12:15.589Z,61.70
2023-02-09T11:17:18.440Z,61.66
2023-02-09T11:22:42.809Z,61.21
2023-02-09T11:28:01.443Z,60.70
2023-02-09T11:33:23.097Z,60.68
2023-02-09T11:38:39.910Z,61.27
2023-02-09T11:43:44.524Z,61.18
2023-02-09T11:48:55.987Z,61.41
2023-02-09T11:54:07.376Z,62.15
2023-02-09T11:59:25.984Z,62.77
2023-02-09T12:04:49.033Z,63.11
2023-02-09T12:10:10.247Z,62.71
2023-02-09T12:15:15.892Z,62.56
2023-02-09T12:20:27.065Z,62.42
2023-02-09T12:25:46.510Z,62.46
2023-02-09T12:30:49.279Z,62.27
2023-02-09T12:36:05.352Z,62.50
2023-02-09T12:41:09.140Z,62.48
2023-02-09T12:46:16.945Z,61.67
2023-02-09T12:51:51.760Z,61.42
2023-02-09T12:56:54.583Z,60.98
2023-02-09T13:02:23.943Z,60.22
2023-02-09T13:07:32.536Z,59.28
2023-02-09T13:12:39.926Z,58.03
2023-02-09T13:18:15.311Z,57.48
2023-02-09T13:23:28.855Z,56.90
2023-02-09T13:28:31.709Z,56.76
2023-02-09T13:33:48.941Z,57.30
2023-02-09T13:38:52.390Z,57.74
2023-02-09T13:43:57.342Z,58.53
2023-02-09T13:49:18.035Z,58.77
2023-02-09T13:54:21.038Z,58.70
2023-02-09T13:59:24.849Z,59.05
2023-02-09T14:04:33.760Z,59.27
2023-02-09T14:09:45.028Z,58.91
2023-02-09T14:15:11.954Z,57.04
2023-02-09T14:20:26.916Z,56.21
2023-02-09T14:25:31.087Z,56.69
2023-02-09T14:30:37.449Z,57.27
2023-02-09T14:35:41.546Z,57.43
2023-02-09T14:40:45.110Z,57.02
2023-02-09T14:45:59.490Z,57.13
2023-02-09T14:51:19.971Z,57.31
2023-02-09T14:56:28.226Z,58.33
2023-02-09T15:01:30.978Z,59.24
2023-02-09T15:06:35.409Z,59.67
2023-02-09T15:11:56.819Z,60.35
2023-02-09T15:17:01.173Z,61.19
2023-02-09T15:22:07.608Z,62.10
2023-02-09T15:27:14.464Z,63.09
2023-02-09T15:32:19.574Z,63.95
2023-02-09T15:37:26.512Z,64.79
2023-02-09T15:42:45.099Z,65.60
2023-02-09T15:47:52.771Z,66.14
2023-02-09T15:52:58.056Z,66.73
2023-02-09T15:58:01.002Z,67.23
2023-02-09T16:03:21.131Z,67.70
2023-02-09T16:08:27.915Z,68.04
2023-02-09T16:13:30.550Z,68.57
2023-02-09T16:18:33.085Z,68.69
2023-02-09T16:23:35.883Z,69.06
2023-02-09T16:28:38.426Z,69.51
2023-02-09T16:33:43.124Z,69.99
2023-02-09T16:38:46.633Z,70.17
2023-02-09T16:43:49.764Z,70.52
2023-02-09T16:48:52.456Z,70.75
2023-02-09T16:53:56.577Z,70.81
2023-02-09T16:59:00.223Z,71.00
2023-02-09T17:04:07.113Z,71.07
2023-02-09T17:09:16.446Z,71.27
2023-02-09T17:14:19.075Z,71.31
2023-02-09T17:19:22.466Z,71.40
2023-02-09T17:24:25.005Z,71.73
2023-02-09T17:29:33.051Z,72.02
2023-02-09T17:34:36.244Z,72.43
2023-02-09T17:39:38.950Z,72.54
2023-02-09T17:44:46.485Z,72.66
2023-02-09T17:49:50.813Z,72.91
2023-02-09T17:54:56.561Z,73.13
2023-02-09T17:59:59.301Z,73.29
2023-02-09T18:05:02.128Z,73.77
2023-02-09T18:10:05.142Z,73.76
2023-02-09T18:15:17.795Z,73.82
2023-02-09T18:20:26.964Z,74.16
2023-02-09T18:25:33.257Z,74.14
2023-02-09T18:30:38.201Z,74.19
2023-02-09T18:35:44.765Z,74.35
2023-02-09T18:40:47.623Z,74.54
2023-02-09T18:45:51.290Z,74.62
2023-02-09T18:50:54.020Z,74.84
2023-02-09T18:55:56.717Z,74.90
2023-02-09T19:00:59.667Z,75.09
2023-02-09T19:06:02.548Z,74.99
2023-02-09T19:11:06.314Z,75.27
2023-02-09T19:16:12.984Z,75.20
2023-02-09T19:21:15.704Z,75.29
2023-02-09T19:26:18.260Z,75.35
2023-02-09T19:31:21.605Z,75.32
2023-02-09T19:36:27.831Z,75.37
2023-02-09T19:41:31.142Z,75.39
2023-02-09T19:46:33.804Z,75.26
2023-02-09T19:51:37.327Z,75.34
2023-02-09T19:56:40.704Z,75.23
2023-02-09T20:01:45.050Z,75.09
2023-02-09T20:06:47.835Z,75.20
2023-02-09T20:11:50.548Z,75.24
2023-02-09T20:16:54.433Z,75.28
2023-02-09T20:21:59.634Z,75.41
2023-02-09T20:27:02.266Z,75.50
2023-02-09T20:32:05.938Z,75.53
2023-02-09T20:37:08.620Z,75.45
2023-02-09T20:42:27.715Z,75.36
2023-02-09T20:47:30.440Z,75.29
2023-02-09T20:52:34.502Z,75.25
2023-02-09T20:57:37.165Z,75.47
2023-02-09T21:02:39.847Z,75.56
2023-02-09T21:07:42.809Z,75.46
2023-02-09T21:12:47.050Z,75.50
2023-02-09T21:17:51.644Z,75.55
2023-02-09T21:22:54.373Z,75.60
2023-02-09T21:28:01.658Z,75.54
2023-02-09T21:33:04.334Z,75.44
2023-02-09T21:38:07.317Z,75.51
2023-02-09T21:43:10.001Z,75.45
2023-02-09T21:48:14.302Z,75.39
2023-02-09T21:53:17.301Z,75.33
2023-02-09T21:58:19.919Z,75.36
2023-02-09T22:03:22.469Z,75.23
2023-02-09T22:08:25.591Z,75.30
2023-02-09T22:13:29.486Z,75.30
2023-02-09T22:18:32.438Z,75.26
2023-02-09T22:23:35.513Z,75.12
2023-02-09T22:28:38.092Z,75.09
2023-02-09T22:33:40.849Z,75.03
2023-02-09T22:38:47.422Z,74.92
2023-02-09T22:44:01.160Z,74.87
2023-02-09T22:49:07.127Z,74.70
2023-02-09T22:54:13.216Z,74.59
2023-02-09T22:59:16.096Z,74.67
2023-02-09T23:04:18.810Z,74.63
2023-02-09T23:09:21.422Z,74.57
2023-02-09T23:14:24.028Z,74.43
2023-02-09T23:19:26.593Z,74.37
2023-02-09T23:24:29.165Z,74.38
2023-02-09T23:29:31.809Z,74.24
2023-02-09T23:34:34.497Z,74.35
2023-02-09T23:39:37.238Z,74.27
2023-02-09T23:44:39.839Z,74.15
2023-02-09T23:49:44.925Z,74.17
2023-02-09T23:54:47.715Z,74.10
2023-02-09T23:59:50.855Z,74.12
